Time;durP1;ratioP1;P1;durP2;ratioP2;P2;SDS_P1;SDS_P2;PMS_P1;PMS_P2;Temp;Humidity;BMP_temperature;BMP_pressure;BME280_temperature;BME280_humidity;BME280_pressure;Samples;Min_cycle;Max_cycle;Signal;HPM_P1;HPM_P2
2024/04/07 00:02:17;;;;;;;1.63;1.08;;;25.00;43.60;;;;;;5008249;28;20142;-64
2024/04/07 00:04:43;;;;;;;1.63;1.00;;;25.00;43.60;;;;;;5009825;28;20486;-64
2024/04/07 00:07:08;;;;;;;2.00;1.02;;;25.00;43.70;;;;;;5008426;28;20021;-63
2024/04/07 00:09:37;;;;;;;1.58;1.02;;;25.00;43.70;;;;;;5009074;28;20026;-64
2024/04/07 00:12:03;;;;;;;1.02;0.90;;;25.00;43.70;;;;;;5009700;28;20066;-64
2024/04/07 00:14:30;;;;;;;2.10;1.00;;;24.90;43.70;;;;;;5009415;28;20414;-64
2024/04/07 00:16:56;;;;;;;1.23;1.00;;;24.90;43.70;;;;;;5008602;28;20415;-64
2024/04/07 00:19:23;;;;;;;1.48;1.17;;;24.90;43.70;;;;;;5008304;28;20029;-63
2024/04/07 00:21:49;;;;;;;1.20;1.00;;;24.90;43.70;;;;;;5009202;28;20370;-64
2024/04/07 00:24:15;;;;;;;1.00;0.90;;;24.90;43.70;;;;;;5009057;28;20026;-64
2024/04/07 00:26:40;;;;;;;1.38;1.00;;;24.90;43.70;;;;;;5009194;28;20771;-64
2024/04/07 00:29:06;;;;;;;1.45;1.00;;;24.90;43.80;;;;;;5009147;28;20511;-64
2024/04/07 00:31:31;;;;;;;1.80;0.88;;;24.90;43.80;;;;;;5009480;28;20029;-64
2024/04/07 00:33:57;;;;;;;2.38;0.90;;;24.90;43.90;;;;;;5008247;28;20492;-65
2024/04/07 00:36:22;;;;;;;2.08;1.20;;;24.80;43.80;;;;;;5009101;28;20034;-65
2024/04/07 00:38:48;;;;;;;1.25;0.85;;;24.80;43.80;;;;;;5008762;28;20060;-65
2024/04/07 00:41:14;;;;;;;1.08;0.90;;;24.80;43.90;;;;;;5009319;28;20486;-65
2024/04/07 00:43:40;;;;;;;1.60;1.10;;;24.80;43.90;;;;;;5009204;28;20037;-65
2024/04/07 00:46:06;;;;;;;1.27;1.00;;;24.80;43.90;;;;;;5009047;28;20137;-65
2024/04/07 00:48:33;;;;;;;1.35;1.00;;;24.80;43.90;;;;;;5007852;28;20030;-65
2024/04/07 00:50:59;;;;;;;1.10;0.95;;;24.80;44.00;;;;;;5009031;28;20062;-65
2024/04/07 00:53:26;;;;;;;2.05;1.00;;;24.80;43.90;;;;;;5008699;28;20462;-65
2024/04/07 00:55:52;;;;;;;1.50;0.98;;;24.70;43.90;;;;;;5008551;28;20033;-65
2024/04/07 00:58:18;;;;;;;1.30;0.95;;;24.70;43.90;;;;;;5008646;28;20034;-65
2024/04/07 01:00:45;;;;;;;1.77;0.90;;;24.70;44.00;;;;;;5008448;28;20036;-65
2024/04/07 01:03:12;;;;;;;1.10;0.82;;;24.70;44.00;;;;;;5007426;28;20092;-65
2024/04/07 01:05:42;;;;;;;1.38;1.05;;;24.70;44.00;;;;;;5008863;28;20109;-65
2024/04/07 01:08:09;;;;;;;1.40;1.00;;;24.70;44.00;;;;;;5008364;28;20034;-65
2024/04/07 01:10:35;;;;;;;1.25;0.90;;;24.70;44.10;;;;;;5008878;28;20088;-65
2024/04/07 01:13:02;;;;;;;1.63;1.10;;;24.70;44.10;;;;;;5008673;28;20033;-65
2024/04/07 01:15:28;;;;;;;1.30;0.98;;;24.70;44.10;;;;;;5008458;28;20060;-64
2024/04/07 01:17:54;;;;;;;1.50;1.10;;;24.70;44.10;;;;;;5007329;28;20029;-64
2024/04/07 01:20:20;;;;;;;1.52;1.02;;;24.70;44.10;;;;;;5008988;28;20026;-64
2024/04/07 01:22:47;;;;;;;1.13;0.90;;;24.60;44.10;;;;;;5008652;28;20042;-64
2024/04/07 01:25:18;;;;;;;1.63;1.10;;;24.60;44.10;;;;;;5008643;28;20110;-64
2024/04/07 01:27:50;;;;;;;1.65;1.00;;;24.60;44.10;;;;;;5008874;28;20755;-63
2024/04/07 01:30:16;;;;;;;1.10;0.90;;;24.60;44.10;;;;;;5012090;28;20113;-63
2024/04/07 01:32:43;;;;;;;1.40;1.00;;;24.60;44.70;;;;;;5010990;28;20109;-64
2024/04/07 01:35:09;;;;;;;1.20;0.93;;;24.60;44.20;;;;;;5012019;28;20481;-64
2024/04/07 01:37:35;;;;;;;1.70;1.10;;;24.60;44.20;;;;;;5011736;28;20028;-64
2024/04/07 01:40:02;;;;;;;1.35;1.00;;;24.60;44.20;;;;;;5012110;28;20389;-64
2024/04/07 01:42:31;;;;;;;1.65;1.02;;;24.60;44.20;;;;;;5011956;28;20029;-63
2024/04/07 01:44:57;;;;;;;0.95;0.85;;;24.50;44.20;;;;;;5012012;28;20502;-65
2024/04/07 01:47:23;;;;;;;1.45;1.02;;;24.50;44.70;;;;;;5011874;28;20120;-65
2024/04/07 01:49:49;;;;;;;1.23;0.90;;;24.50;44.20;;;;;;5011026;28;20021;-65
2024/04/07 01:52:15;;;;;;;2.03;1.10;;;24.50;44.20;;;;;;5011582;28;20034;-65
2024/04/07 01:54:41;;;;;;;1.33;1.02;;;24.50;44.20;;;;;;5011198;28;20101;-65
2024/04/07 01:57:06;;;;;;;2.60;0.93;;;24.50;44.20;;;;;;5011514;28;20124;-65
2024/04/07 01:59:32;;;;;;;1.20;0.90;;;24.50;44.20;;;;;;5011748;28;20490;-65
2024/04/07 02:01:58;;;;;;;1.20;0.90;;;24.50;44.30;;;;;;5011352;28;20026;-65
2024/04/07 02:04:26;;;;;;;1.17;0.90;;;24.50;44.30;;;;;;5010695;28;20731;-65
2024/04/07 02:06:52;;;;;;;1.08;0.95;;;24.50;44.30;;;;;;5011399;28;20025;-65
2024/04/07 02:09:18;;;;;;;1.33;1.00;;;24.50;44.30;;;;;;5011067;28;20022;-65
2024/04/07 02:11:43;;;;;;;1.42;0.93;;;24.40;44.30;;;;;;5011421;28;20026;-65
2024/04/07 02:14:09;;;;;;;1.35;1.00;;;24.50;44.40;;;;;;5011099;28;20030;-65
2024/04/07 02:16:35;;;;;;;1.00;0.90;;;24.50;44.40;;;;;;5011107;28;20112;-65
2024/04/07 02:19:00;;;;;;;1.23;0.85;;;24.40;44.30;;;;;;5010174;28;20136;-65
2024/04/07 02:21:26;;;;;;;1.48;1.10;;;24.50;44.40;;;;;;5011097;28;20091;-65
2024/04/07 02:23:52;;;;;;;1.20;0.90;;;24.40;44.30;;;;;;5010857;28;20030;-64
2024/04/07 02:26:17;;;;;;;1.02;0.93;;;24.40;44.30;;;;;;5011327;28;20045;-65
2024/04/07 02:28:43;;;;;;;1.02;0.90;;;24.40;44.40;;;;;;5010695;28;20068;-65
2024/04/07 02:31:09;;;;;;;1.17;0.90;;;24.40;44.40;;;;;;5011011;28;20121;-65
2024/04/07 02:33:36;;;;;;;1.00;0.90;;;24.40;44.40;;;;;;4990023;28;20504;-65
2024/04/07 02:36:01;;;;;;;1.33;0.90;;;24.40;44.50;;;;;;5010909;28;20084;-63
2024/04/07 02:38:27;;;;;;;1.20;0.93;;;24.40;44.40;;;;;;5010817;28;20033;-62
2024/04/07 02:40:53;;;;;;;1.20;0.90;;;24.40;44.50;;;;;;5010187;28;20065;-63
2024/04/07 02:43:18;;;;;;;1.50;0.95;;;24.30;44.40;;;;;;5010977;28;20080;-63
2024/04/07 02:48:29;;;;;;;1.20;0.90;;;24.30;44.40;;;;;;5009145;28;20109;-63
2024/04/07 02:50:56;;;;;;;1.25;0.90;;;24.30;44.40;;;;;;5010809;28;20133;-63
2024/04/07 02:53:22;;;;;;;1.42;0.90;;;24.30;44.40;;;;;;5010762;28;20385;-62
2024/04/07 02:55:48;;;;;;;1.42;1.00;;;24.30;44.50;;;;;;5010531;28;20022;-63
2024/04/07 02:58:13;;;;;;;1.10;1.00;;;24.30;44.50;;;;;;5010386;28;20041;-64
2024/04/07 03:00:39;;;;;;;1.45;0.98;;;24.30;44.50;;;;;;5010470;28;20412;-64
2024/04/07 03:03:04;;;;;;;1.10;0.90;;;24.30;44.50;;;;;;5010404;28;20394;-63
2024/04/07 03:05:30;;;;;;;0.90;0.80;;;24.30;44.50;;;;;;5009336;28;20041;-64
2024/04/07 03:07:56;;;;;;;1.00;0.85;;;24.30;44.50;;;;;;5010018;28;20123;-63
2024/04/07 03:10:21;;;;;;;1.27;1.00;;;24.30;44.50;;;;;;4983703;28;20462;-63
2024/04/07 03:12:47;;;;;;;1.30;0.93;;;24.30;44.50;;;;;;5009870;28;20029;-64
2024/04/07 03:15:13;;;;;;;1.77;1.35;;;24.30;44.60;;;;;;5010214;28;20116;-64
2024/04/07 03:17:39;;;;;;;1.50;0.98;;;24.30;44.60;;;;;;5010311;28;20034;-63
2024/04/07 03:20:05;;;;;;;1.67;1.20;;;24.30;44.60;;;;;;5009280;28;20099;-64
2024/04/07 03:22:31;;;;;;;1.60;0.95;;;24.30;44.60;;;;;;5010228;28;20045;-63
2024/04/07 03:24:57;;;;;;;1.60;1.00;;;24.30;44.60;;;;;;5009303;28;20032;-64
2024/04/07 03:27:22;;;;;;;1.17;0.77;;;24.20;44.60;;;;;;5010115;28;20520;-64
2024/04/07 03:29:48;;;;;;;1.25;1.00;;;24.20;44.60;;;;;;5009960;28;20458;-64
2024/04/07 03:32:14;;;;;;;1.10;0.90;;;24.20;44.60;;;;;;5009746;28;20435;-63
2024/04/07 03:34:39;;;;;;;1.10;0.90;;;24.20;44.60;;;;;;5008703;28;20458;-64
2024/04/07 03:37:06;;;;;;;1.35;0.98;;;24.20;44.60;;;;;;5009673;28;20033;-64
2024/04/07 03:39:32;;;;;;;1.02;0.80;;;24.20;44.60;;;;;;5009831;28;20446;-63
2024/04/07 03:41:58;;;;;;;1.08;0.93;;;24.20;44.60;;;;;;5009352;28;20104;-63
2024/04/07 03:44:25;;;;;;;1.40;0.90;;;24.20;44.70;;;;;;5009881;28;20105;-63
2024/04/07 03:46:50;;;;;;;1.08;0.90;;;24.20;44.70;;;;;;5010109;28;20088;-64
2024/04/07 03:49:16;;;;;;;1.50;1.00;;;24.20;44.70;;;;;;5008312;28;20030;-64
2024/04/07 03:51:41;;;;;;;1.10;0.80;;;24.10;44.70;;;;;;5008739;28;20022;-63
2024/04/07 03:54:07;;;;;;;1.52;1.00;;;24.10;44.70;;;;;;5009462;28;20030;-64
2024/04/07 03:56:33;;;;;;;0.90;0.80;;;24.20;44.80;;;;;;5009519;28;20077;-64
2024/04/07 03:58:58;;;;;;;0.85;0.80;;;24.10;44.70;;;;;;5009166;28;20034;-63
2024/04/07 04:01:24;;;;;;;1.67;1.10;;;24.10;44.70;;;;;;5009559;28;20386;-64
2024/04/07 04:03:50;;;;;;;1.25;1.00;;;24.10;45.30;;;;;;5008341;28;20423;-64
2024/04/07 04:06:15;;;;;;;1.35;1.00;;;24.10;44.70;;;;;;5009393;28;20678;-62
2024/04/07 04:08:41;;;;;;;1.42;1.00;;;24.10;44.80;;;;;;5009222;28;20041;-62
2024/04/07 04:11:09;;;;;;;1.00;0.90;;;24.10;44.80;;;;;;5009449;28;20066;-62
2024/04/07 04:13:35;;;;;;;1.23;0.93;;;24.10;44.90;;;;;;5009508;28;20960;-63
2024/04/07 04:16:01;;;;;;;1.15;0.90;;;24.10;44.90;;;;;;5009410;28;20092;-63
2024/04/07 04:18:27;;;;;;;1.45;0.95;;;24.10;44.90;;;;;;5009310;28;20433;-62
2024/04/07 04:20:53;;;;;;;1.30;0.90;;;24.10;45.00;;;;;;5008505;28;20434;-62
2024/04/07 04:23:19;;;;;;;1.00;0.90;;;24.10;45.00;;;;;;5009250;28;20030;-62
2024/04/07 04:25:52;;;;;;;1.23;0.80;;;24.10;45.00;;;;;;5008875;28;20058;-62
2024/04/07 04:28:18;;;;;;;1.30;0.90;;;24.10;45.00;;;;;;5009242;28;20520;-62
2024/04/07 04:31:05;;;;;;;1.20;0.90;;;24.10;45.10;;;;;;5009042;28;20030;-62
2024/04/07 04:33:31;;;;;;;1.25;0.80;;;24.10;45.00;;;;;;5009130;28;20053;-63
2024/04/07 04:35:57;;;;;;;1.50;0.90;;;24.10;45.10;;;;;;5007938;28;20346;-62
2024/04/07 04:38:22;;;;;;;1.52;0.95;;;24.10;45.10;;;;;;5008790;28;20080;-62
2024/04/07 04:40:58;;;;;;;1.35;0.90;;;24.10;45.10;;;;;;5008798;28;20061;-62
2024/04/07 04:43:24;;;;;;;1.27;0.90;;;24.00;45.10;;;;;;5008833;28;20030;-62
2024/04/07 04:46:06;;;;;;;1.30;0.80;;;24.00;45.10;;;;;;5008580;28;20022;-65
2024/04/07 04:48:36;;;;;;;1.50;0.90;;;24.00;45.00;;;;;;5009342;28;20030;-65
2024/04/07 04:51:03;;;;;;;1.75;0.90;;;24.00;45.00;;;;;;5000881;28;20026;-65
2024/04/07 04:53:29;;;;;;;2.08;0.90;;;24.00;45.00;;;;;;5008968;28;20413;-65
2024/04/07 04:56:02;;;;;;;1.75;1.00;;;24.00;45.00;;;;;;5008958;28;20069;-62
2024/04/07 04:58:32;;;;;;;1.45;0.90;;;24.00;44.90;;;;;;5008781;28;20030;-63
2024/04/07 05:00:57;;;;;;;1.83;1.13;;;24.00;44.80;;;;;;5008413;28;20034;-62
2024/04/07 05:03:25;;;;;;;1.88;0.90;;;23.90;44.60;;;;;;5010463;28;20141;-63
2024/04/07 05:05:51;;;;;;;1.10;0.90;;;23.90;44.50;;;;;;5011860;28;20054;-63
2024/04/07 05:08:17;;;;;;;1.75;1.00;;;23.90;44.40;;;;;;5012399;28;20107;-62
2024/04/07 05:10:43;;;;;;;1.52;0.90;;;23.90;44.30;;;;;;5012496;28;20382;-63
2024/04/07 05:13:08;;;;;;;1.92;1.10;;;23.90;44.20;;;;;;5012413;28;20544;-62
2024/04/07 05:15:34;;;;;;;1.42;0.90;;;23.90;44.60;;;;;;5012520;28;20034;-66
2024/04/07 05:18:00;;;;;;;3.22;1.42;;;23.90;43.90;;;;;;5012669;28;20063;-65
2024/04/07 05:20:26;;;;;;;1.67;1.10;;;23.90;43.80;;;;;;5011135;28;20033;-65
2024/04/07 05:22:52;;;;;;;1.67;1.00;;;23.90;43.70;;;;;;5012631;28;20030;-65
2024/04/07 05:25:18;;;;;;;1.52;0.95;;;23.90;43.60;;;;;;5012110;28;20018;-65
2024/04/07 05:27:44;;;;;;;1.75;1.10;;;23.90;43.50;;;;;;5012051;28;20422;-65
2024/04/07 05:30:10;;;;;;;1.38;1.00;;;23.90;43.50;;;;;;5012433;28;20064;-65
2024/04/07 05:32:36;;;;;;;1.85;1.10;;;23.90;43.40;;;;;;5012189;28;20108;-65
2024/04/07 05:35:04;;;;;;;2.10;1.20;;;23.90;43.40;;;;;;5011001;28;20101;-65
2024/04/07 05:37:31;;;;;;;1.58;1.00;;;23.80;43.20;;;;;;5012136;28;20110;-65
2024/04/07 05:39:57;;;;;;;1.75;1.00;;;23.80;43.20;;;;;;5012006;28;20481;-65
2024/04/07 05:42:28;;;;;;;1.38;1.00;;;23.80;43.10;;;;;;5011882;28;20064;-65
2024/04/07 05:44:54;;;;;;;1.55;1.00;;;23.80;43.00;;;;;;5011880;28;20350;-65
2024/04/07 05:47:22;;;;;;;1.52;1.08;;;23.80;43.00;;;;;;5011906;28;20101;-65
2024/04/07 05:49:47;;;;;;;1.63;1.00;;;23.80;43.00;;;;;;5010973;28;20037;-65
2024/04/07 05:52:13;;;;;;;1.90;1.13;;;23.80;43.00;;;;;;5011918;28;20053;-65
2024/04/07 05:54:39;;;;;;;2.38;1.30;;;23.80;43.00;;;;;;5011768;28;20056;-65
2024/04/07 05:57:04;;;;;;;2.10;1.17;;;23.80;42.90;;;;;;5011357;28;20544;-65
2024/04/07 05:59:30;;;;;;;1.83;1.00;;;23.70;42.80;;;;;;5011657;28;20096;-65
2024/04/07 06:01:56;;;;;;;1.67;1.02;;;23.80;42.90;;;;;;5011542;28;20084;-64
2024/04/07 06:04:21;;;;;;;1.73;1.13;;;23.70;42.80;;;;;;5011524;28;20088;-66
2024/04/07 06:06:50;;;;;;;1.63;1.10;;;23.70;42.70;;;;;;5010316;28;20026;-62
2024/04/07 06:09:15;;;;;;;3.40;1.60;;;23.70;42.80;;;;;;5011308;28;20450;-62
2024/04/07 06:11:41;;;;;;;2.05;1.20;;;23.70;42.80;;;;;;5010176;28;20029;-62
2024/04/07 06:14:07;;;;;;;2.17;1.40;;;23.70;42.80;;;;;;5011014;28;20385;-62
2024/04/07 06:16:34;;;;;;;2.53;1.40;;;23.70;42.80;;;;;;5010845;28;20030;-62
2024/04/07 06:18:59;;;;;;;1.60;1.20;;;23.70;42.80;;;;;;5010747;28;20029;-63
2024/04/07 06:21:25;;;;;;;2.60;1.65;;;23.70;42.80;;;;;;5010329;28;20034;-62
2024/04/07 06:23:50;;;;;;;3.05;1.60;;;23.70;42.80;;;;;;5011172;28;20026;-62
2024/04/07 06:26:16;;;;;;;2.60;1.67;;;23.70;42.80;;;;;;5010773;28;20091;-63
2024/04/07 06:28:43;;;;;;;2.65;1.55;;;23.70;42.80;;;;;;5011036;28;20367;-62
2024/04/07 06:31:09;;;;;;;2.25;1.65;;;23.70;42.80;;;;;;5011322;28;20578;-63
2024/04/07 06:33:36;;;;;;;3.17;1.40;;;23.70;42.90;;;;;;5011111;28;20108;-63
2024/04/07 06:36:02;;;;;;;2.17;1.50;;;23.70;42.90;;;;;;5009486;28;20034;-62
2024/04/07 06:38:27;;;;;;;2.45;1.52;;;23.70;43.00;;;;;;5010897;28;20045;-62
2024/04/07 06:40:53;;;;;;;2.33;1.42;;;23.70;43.00;;;;;;5011055;28;20068;-63
2024/04/07 06:43:19;;;;;;;2.40;1.50;;;23.60;43.00;;;;;;5010770;28;20048;-62
2024/04/07 06:45:44;;;;;;;2.40;1.60;;;23.60;43.10;;;;;;5010672;28;20030;-63
2024/04/07 06:48:10;;;;;;;2.05;1.58;;;23.70;43.10;;;;;;5010711;28;20074;-62
2024/04/07 06:50:36;;;;;;;1.90;1.50;;;23.60;43.10;;;;;;5009289;28;20401;-62
2024/04/07 06:53:02;;;;;;;4.10;1.63;;;23.60;43.10;;;;;;5010599;28;20065;-63
2024/04/07 06:55:27;;;;;;;2.72;1.60;;;23.60;43.10;;;;;;5010013;28;20034;-62
2024/04/07 06:57:54;;;;;;;3.72;1.80;;;23.60;43.20;;;;;;5010452;28;20470;-62
2024/04/07 07:00:20;;;;;;;2.30;1.50;;;23.60;43.20;;;;;;5010511;28;20018;-62
2024/04/07 07:02:45;;;;;;;2.70;1.45;;;23.60;43.20;;;;;;5010399;28;20475;-62
2024/04/07 07:05:11;;;;;;;2.45;1.70;;;23.60;43.20;;;;;;5009543;28;20034;-62
2024/04/07 07:07:37;;;;;;;2.33;1.50;;;23.60;43.30;;;;;;5009959;28;20038;-62
2024/04/07 07:10:06;;;;;;;3.50;1.80;;;23.60;43.30;;;;;;5010420;28;20044;-62
2024/04/07 07:12:32;;;;;;;2.58;1.77;;;23.60;43.30;;;;;;5010089;28;20172;-62
2024/04/07 07:14:58;;;;;;;2.15;1.50;;;23.60;43.30;;;;;;5010087;28;20132;-62
2024/04/07 07:17:23;;;;;;;3.30;1.60;;;23.60;43.30;;;;;;5010159;28;20164;-65
2024/04/07 07:19:49;;;;;;;1.95;1.42;;;23.60;43.40;;;;;;5010183;28;20029;-65
2024/04/07 07:22:15;;;;;;;2.20;1.60;;;23.60;43.40;;;;;;5009156;28;20340;-65
2024/04/07 07:24:40;;;;;;;2.25;1.50;;;23.50;43.90;;;;;;5009903;28;20022;-65
2024/04/07 07:27:06;;;;;;;2.25;1.55;;;23.60;43.40;;;;;;5009702;28;20220;-65
2024/04/07 07:29:32;;;;;;;2.58;1.60;;;23.60;43.40;;;;;;5009968;28;20045;-65
2024/04/07 07:31:57;;;;;;;2.88;1.70;;;23.50;43.40;;;;;;5009776;28;20037;-64
2024/04/07 07:34:24;;;;;;;2.28;1.55;;;23.50;43.40;;;;;;5009844;28;20029;-65
2024/04/07 07:36:50;;;;;;;2.15;1.60;;;23.50;43.50;;;;;;5008586;28;20504;-63
2024/04/07 07:39:15;;;;;;;2.47;1.77;;;23.50;43.50;;;;;;5009719;28;20465;-64
2024/04/07 07:41:41;;;;;;;3.30;1.55;;;23.50;43.50;;;;;;5008947;28;20101;-63
2024/04/07 07:44:07;;;;;;;2.75;1.50;;;23.50;43.60;;;;;;5009592;28;20034;-63
2024/04/07 07:46:32;;;;;;;2.38;1.50;;;23.50;43.60;;;;;;5009419;28;20056;-64
2024/04/07 07:48:58;;;;;;;2.30;1.40;;;23.50;43.60;;;;;;5009486;28;20529;-64
2024/04/07 07:51:24;;;;;;;2.92;1.70;;;23.50;43.70;;;;;;5008400;28;20036;-64
2024/04/07 07:53:50;;;;;;;2.92;1.60;;;23.50;43.70;;;;;;5009419;28;20038;-64
2024/04/07 07:56:16;;;;;;;2.15;1.50;;;23.50;43.70;;;;;;5009361;28;20543;-64
2024/04/07 07:58:41;;;;;;;2.63;1.70;;;23.50;43.80;;;;;;5008998;28;20034;-63
2024/04/07 08:01:07;;;;;;;2.13;1.50;;;23.50;43.80;;;;;;5008506;28;20022;-63
2024/04/07 08:03:35;;;;;;;2.72;1.65;;;23.50;43.80;;;;;;5009412;28;20049;-63
2024/04/07 08:06:00;;;;;;;2.17;1.60;;;23.50;43.80;;;;;;5007780;28;20490;-64
2024/04/07 08:08:26;;;;;;;2.08;1.48;;;23.50;43.80;;;;;;5009135;28;20049;-64
2024/04/07 08:10:52;;;;;;;2.05;1.60;;;23.50;43.90;;;;;;5008505;28;20497;-64
2024/04/07 08:13:18;;;;;;;2.22;1.67;;;23.50;43.90;;;;;;5008447;28;20545;-62
2024/04/07 08:15:44;;;;;;;2.17;1.50;;;23.50;43.90;;;;;;5008986;28;20109;-63
2024/04/07 08:18:11;;;;;;;2.13;1.45;;;23.50;44.00;;;;;;5008841;28;20482;-63
2024/04/07 08:20:37;;;;;;;2.45;1.50;;;23.50;43.90;;;;;;5009252;28;20541;-63
2024/04/07 08:23:03;;;;;;;2.40;1.60;;;23.50;44.50;;;;;;5007736;28;20141;-64
2024/04/07 08:25:28;;;;;;;2.40;1.60;;;23.50;44.00;;;;;;5009002;28;20133;-63
2024/04/07 08:27:54;;;;;;;2.28;1.38;;;23.50;44.00;;;;;;5008561;28;20025;-63
2024/04/07 08:30:19;;;;;;;2.30;1.58;;;23.50;44.00;;;;;;4983065;28;20032;-64
2024/04/07 08:32:45;;;;;;;2.40;1.48;;;23.50;44.00;;;;;;5009158;28;20333;-63
2024/04/07 08:35:12;;;;;;;2.63;1.60;;;23.50;44.10;;;;;;5008443;28;20034;-64
2024/04/07 08:37:39;;;;;;;2.15;1.38;;;23.50;44.10;;;;;;5007196;28;20092;-63
2024/04/07 08:40:07;;;;;;;3.15;1.85;;;23.50;44.20;;;;;;5013137;28;20498;-63
2024/04/07 08:42:34;;;;;;;2.53;1.55;;;23.50;44.30;;;;;;5012915;28;20042;-63
2024/04/07 08:45:03;;;;;;;1.95;1.40;;;23.50;44.30;;;;;;5012776;28;20521;-63
2024/04/07 08:47:30;;;;;;;2.33;1.60;;;23.50;45.00;;;;;;5012746;28;20042;-63
2024/04/07 08:49:56;;;;;;;2.28;1.55;;;23.50;44.40;;;;;;5012877;28;20504;-64
2024/04/07 08:52:22;;;;;;;2.92;1.58;;;23.50;44.50;;;;;;5012041;28;20107;-63
2024/04/07 08:54:48;;;;;;;2.33;1.40;;;23.50;44.50;;;;;;5012475;28;20034;-63
2024/04/07 08:57:14;;;;;;;2.53;1.65;;;23.50;44.50;;;;;;5012033;28;20041;-63
2024/04/07 08:59:41;;;;;;;2.67;1.77;;;23.50;44.60;;;;;;5012453;28;20033;-63
2024/04/07 09:02:08;;;;;;;3.95;1.65;;;23.50;44.60;;;;;;5012519;28;20025;-63
2024/04/07 09:04:34;;;;;;;2.17;1.50;;;23.50;44.60;;;;;;5012526;28;20030;-63
2024/04/07 09:07:03;;;;;;;2.83;1.80;;;23.50;44.60;;;;;;5010998;28;20483;-63
2024/04/07 09:09:33;;;;;;;2.97;1.90;;;23.50;44.70;;;;;;5012570;28;20453;-63
2024/04/07 09:11:59;;;;;;;2.47;1.77;;;23.50;44.70;;;;;;5012174;28;20481;-63
2024/04/07 09:14:26;;;;;;;3.08;1.70;;;23.50;44.70;;;;;;5012324;28;20037;-62
2024/04/07 09:17:04;;;;;;;3.08;1.90;;;23.50;44.70;;;;;;5012155;28;20022;-62
2024/04/07 09:19:37;;;;;;;2.88;1.88;;;23.50;44.70;;;;;;5011994;28;20030;-63
2024/04/07 09:22:04;;;;;;;2.35;1.50;;;23.50;44.70;;;;;;5010404;28;20128;-63
2024/04/07 09:24:31;;;;;;;3.25;1.88;;;23.40;44.80;;;;;;5012104;28;20370;-63
2024/04/07 09:27:10;;;;;;;3.03;1.80;;;23.50;44.80;;;;;;5011699;28;20022;-64
2024/04/07 09:29:38;;;;;;;2.65;1.77;;;23.50;44.90;;;;;;5012008;28;20486;-65
2024/04/07 09:32:04;;;;;;;2.40;1.50;;;23.50;44.90;;;;;;5012180;28;20026;-65
2024/04/07 09:34:32;;;;;;;2.25;1.50;;;23.50;44.90;;;;;;5012178;28;20033;-65
2024/04/07 09:36:59;;;;;;;2.58;1.50;;;23.50;44.90;;;;;;5010731;28;20041;-63
2024/04/07 09:39:26;;;;;;;3.22;1.63;;;23.40;44.40;;;;;;5012044;28;20080;-62
2024/04/07 09:41:54;;;;;;;3.15;1.50;;;23.50;44.30;;;;;;4990360;28;20109;-63
2024/04/07 09:44:20;;;;;;;2.22;1.50;;;23.50;44.10;;;;;;5012146;28;20083;-62
2024/04/07 09:46:46;;;;;;;2.30;1.50;;;23.40;43.90;;;;;;5012106;28;20061;-63
2024/04/07 09:49:13;;;;;;;2.53;1.42;;;23.40;43.80;;;;;;5010674;28;20018;-63
2024/04/07 09:51:42;;;;;;;2.42;1.40;;;23.40;43.80;;;;;;5010427;28;20473;-62
2024/04/07 09:54:13;;;;;;;2.13;1.30;;;23.40;43.80;;;;;;5011643;28;20029;-62
2024/04/07 09:56:39;;;;;;;2.17;1.20;;;23.40;43.90;;;;;;5011392;28;20386;-62
2024/04/07 09:59:06;;;;;;;2.72;1.40;;;23.40;43.90;;;;;;5011040;28;20018;-62
2024/04/07 10:01:31;;;;;;;2.70;1.45;;;23.40;43.90;;;;;;5011252;28;20037;-61
2024/04/07 10:03:58;;;;;;;2.30;1.40;;;23.50;44.30;;;;;;5011320;28;20029;-62
2024/04/07 10:06:24;;;;;;;2.30;1.40;;;23.50;45.00;;;;;;5010820;28;20036;-61
2024/04/07 10:08:51;;;;;;;3.35;1.65;;;23.50;44.60;;;;;;5010455;28;20041;-62
2024/04/07 10:11:18;;;;;;;3.85;1.55;;;23.50;44.70;;;;;;5010974;28;20088;-62
2024/04/07 10:13:44;;;;;;;2.72;1.48;;;23.50;45.30;;;;;;5010852;28;20038;-62
2024/04/07 10:16:13;;;;;;;2.42;1.30;;;23.50;45.40;;;;;;5010939;28;20030;-62
2024/04/07 10:18:41;;;;;;;2.78;1.52;;;23.50;44.80;;;;;;5011015;28;20061;-62
2024/04/07 10:21:08;;;;;;;2.45;1.30;;;23.60;44.80;;;;;;5011212;28;20037;-62
2024/04/07 10:23:38;;;;;;;2.25;1.40;;;23.60;45.30;;;;;;5010284;28;20080;-62
2024/04/07 10:26:05;;;;;;;2.67;1.23;;;23.60;44.70;;;;;;5010980;28;20032;-62
2024/04/07 10:28:48;;;;;;;2.30;1.50;;;23.60;44.70;;;;;;5010727;28;20100;-62
2024/04/07 10:31:31;;;;;;;2.67;1.40;;;23.60;44.80;;;;;;5010771;28;20088;-63
2024/04/07 10:33:57;;;;;;;2.25;1.30;;;23.60;44.80;;;;;;5010903;28;20030;-63
2024/04/07 10:36:25;;;;;;;3.13;1.77;;;23.60;45.40;;;;;;5010882;28;20026;-65
2024/04/07 10:38:54;;;;;;;2.22;1.27;;;23.60;44.90;;;;;;5009334;28;20044;-65
2024/04/07 10:41:27;;;;;;;2.20;1.30;;;23.60;44.90;;;;;;5010471;28;20037;-66
2024/04/07 10:43:54;;;;;;;3.20;1.60;;;23.60;44.80;;;;;;5010497;28;20056;-65
2024/04/07 10:46:21;;;;;;;2.85;1.45;;;23.70;45.40;;;;;;5010574;28;20026;-63
2024/04/07 10:48:48;;;;;;;2.55;1.50;;;23.70;45.00;;;;;;5010426;28;20865;-63
2024/04/07 10:51:15;;;;;;;3.85;1.40;;;23.70;44.80;;;;;;5010215;28;20482;-63
2024/04/07 10:53:42;;;;;;;3.00;1.50;;;23.70;44.50;;;;;;5009589;28;20077;-64
2024/04/07 10:56:07;;;;;;;2.65;1.20;;;23.80;44.20;;;;;;5010508;28;20040;-64
2024/04/07 10:58:39;;;;;;;3.75;1.40;;;23.90;43.90;;;;;;5010127;28;20034;-64
2024/04/07 11:01:05;;;;;;;3.25;1.30;;;23.90;43.80;;;;;;5010430;28;20040;-64
2024/04/07 11:03:36;;;;;;;2.20;1.20;;;24.00;43.60;;;;;;5010652;28;20060;-64
2024/04/07 11:06:03;;;;;;;3.28;1.40;;;24.00;43.40;;;;;;5010399;28;20390;-63
2024/04/07 11:08:29;;;;;;;3.40;1.50;;;24.10;43.40;;;;;;5009592;28;20555;-63
2024/04/07 11:10:54;;;;;;;3.25;1.42;;;24.20;43.00;;;;;;5010242;28;20034;-63
2024/04/07 11:13:22;;;;;;;3.83;1.40;;;24.20;43.00;;;;;;5010467;28;20493;-63
2024/04/07 11:15:51;;;;;;;2.75;1.30;;;24.20;42.90;;;;;;5010208;28;20052;-63
2024/04/07 11:18:18;;;;;;;2.90;1.40;;;24.20;42.90;;;;;;5010517;28;20029;-63
2024/04/07 11:20:45;;;;;;;3.50;1.45;;;24.30;42.90;;;;;;5010459;28;20030;-62
2024/04/07 11:23:11;;;;;;;5.32;1.30;;;24.30;42.90;;;;;;5008796;28;20022;-62
2024/04/07 11:25:39;;;;;;;3.92;1.38;;;24.30;42.80;;;;;;5010374;28;20482;-62
2024/04/07 11:28:05;;;;;;;3.25;1.20;;;24.40;42.90;;;;;;5009793;28;20061;-63
2024/04/07 11:30:51;;;;;;;2.30;1.25;;;24.40;42.60;;;;;;5009931;28;20576;-63
2024/04/07 11:33:17;;;;;;;2.42;1.10;;;24.40;43.00;;;;;;5010208;28;20150;-63
2024/04/07 11:35:44;;;;;;;3.55;1.50;;;24.50;42.80;;;;;;5009926;28;20026;-62
2024/04/07 11:38:10;;;;;;;2.90;1.35;;;24.50;42.20;;;;;;5008674;28;20025;-62
2024/04/07 11:40:37;;;;;;;3.22;1.25;;;24.50;41.90;;;;;;5009843;28;20525;-62
2024/04/07 11:43:03;;;;;;;4.53;1.20;;;24.50;41.60;;;;;;5009194;28;20105;-62
2024/04/07 11:45:29;;;;;;;3.50;1.20;;;24.50;41.40;;;;;;5009660;28;20025;-62
2024/04/07 11:47:55;;;;;;;5.22;1.52;;;24.60;41.40;;;;;;5009448;28;20215;-63
2024/04/07 11:50:23;;;;;;;3.13;1.30;;;24.60;41.10;;;;;;5008525;28;20041;-63
2024/04/07 11:52:50;;;;;;;3.30;1.13;;;24.60;41.20;;;;;;5007798;28;20096;-63
2024/04/07 11:55:15;;;;;;;3.47;1.30;;;24.70;41.00;;;;;;5009144;28;20103;-64
2024/04/07 11:57:41;;;;;;;3.05;1.73;;;24.70;41.20;;;;;;5009211;28;20030;-65
2024/04/07 12:00:08;;;;;;;2.97;1.20;;;24.70;40.80;;;;;;5009138;28;20493;-65
2024/04/07 12:02:33;;;;;;;3.25;1.30;;;24.70;40.70;;;;;;5009277;28;20026;-65
2024/04/07 12:05:01;;;;;;;2.45;1.20;;;24.70;40.60;;;;;;5009221;28;20049;-65
2024/04/07 12:07:27;;;;;;;3.85;1.20;;;24.70;40.60;;;;;;5008215;28;20057;-64
2024/04/07 12:09:52;;;;;;;4.68;1.35;;;24.60;40.40;;;;;;5008905;28;20034;-64
2024/04/07 12:12:18;;;;;;;4.32;1.10;;;24.60;40.30;;;;;;5008604;28;20486;-65
2024/04/07 12:14:43;;;;;;;2.80;1.08;;;24.60;40.30;;;;;;5008720;28;20038;-65
2024/04/07 12:17:09;;;;;;;3.72;1.23;;;24.70;40.70;;;;;;5009529;28;20029;-63
2024/04/07 12:19:35;;;;;;;3.72;1.35;;;24.70;40.10;;;;;;5009311;28;20105;-64
2024/04/07 12:22:07;;;;;;;4.70;1.50;;;24.70;40.10;;;;;;5009099;28;20049;-64
2024/04/07 12:24:33;;;;;;;3.53;1.55;;;24.70;40.10;;;;;;5007967;28;20037;-63
2024/04/07 12:27:00;;;;;;;3.97;1.23;;;24.70;40.20;;;;;;5009311;28;20097;-63
2024/04/07 12:29:25;;;;;;;2.70;1.40;;;24.70;40.30;;;;;;5009028;28;20037;-63
2024/04/07 12:31:54;;;;;;;3.25;1.40;;;24.70;40.30;;;;;;5009133;28;20367;-63
2024/04/07 12:34:19;;;;;;;5.03;1.50;;;24.70;40.50;;;;;;5008895;28;20109;-63
2024/04/07 12:36:45;;;;;;;3.38;1.30;;;24.70;40.40;;;;;;4983785;28;20113;-62
2024/04/07 12:39:11;;;;;;;3.22;1.27;;;24.70;40.50;;;;;;5008111;28;20048;-63
2024/04/07 12:41:37;;;;;;;3.60;1.50;;;24.60;40.40;;;;;;5009119;28;20518;-63
2024/04/07 12:44:07;;;;;;;3.33;1.30;;;24.60;40.40;;;;;;5008694;28;20040;-63
2024/04/07 12:46:33;;;;;;;4.13;1.30;;;24.60;40.50;;;;;;5008606;28;20109;-63
2024/04/07 12:48:58;;;;;;;4.65;1.48;;;24.60;40.50;;;;;;5008724;28;20112;-64